sensor_id;sensor_type;location;lat;lon;timestamp;pressure;altitude;pressure_sealevel;temperature;humidity
62710;BME280;48770;51.624;5.886;2023-02-01T00:01:30;101859.25;;;18.32;37.53
62710;BME280;48770;51.624;5.886;2023-02-01T00:03:56;101857.63;;;18.31;37.48
62710;BME280;48770;51.624;5.886;2023-02-01T00:06:21;101853.22;;;18.30;37.10
62710;BME280;48770;51.624;5.886;2023-02-01T00:08:46;101847.97;;;18.28;37.37
62710;BME280;48770;51.624;5.886;2023-02-01T00:11:12;101851.56;;;18.29;37.54
62710;BME280;48770;51.624;5.886;2023-02-01T00:13:40;101854.34;;;18.29;37.60
62710;BME280;48770;51.624;5.886;2023-02-01T00:16:08;101847.16;;;18.28;37.68
62710;BME280;48770;51.624;5.886;2023-02-01T00:18:34;101837.22;;;18.27;37.76
62710;BME280;48770;51.624;5.886;2023-02-01T00:21:00;101828.41;;;18.25;37.49
62710;BME280;48770;51.624;5.886;2023-02-01T00:23:25;101814.56;;;18.25;37.60
62710;BME280;48770;51.624;5.886;2023-02-01T00:25:51;101804.63;;;18.24;37.43
62710;BME280;48770;51.624;5.886;2023-02-01T00:28:16;101801.34;;;18.22;37.28
62710;BME280;48770;51.624;5.886;2023-02-01T00:30:41;101806.88;;;18.22;37.64
62710;BME280;48770;51.624;5.886;2023-02-01T00:33:07;101812.44;;;18.22;37.60
62710;BME280;48770;51.624;5.886;2023-02-01T00:35:34;101800.50;;;18.21;37.45
62710;BME280;48770;51.624;5.886;2023-02-01T00:37:59;101802.47;;;18.21;37.32
62710;BME280;48770;51.624;5.886;2023-02-01T00:40:25;101821.00;;;18.20;37.57
62710;BME280;48770;51.624;5.886;2023-02-01T00:42:51;101811.88;;;18.19;37.56
62710;BME280;48770;51.624;5.886;2023-02-01T00:45:17;101814.66;;;18.19;37.79
62710;BME280;48770;51.624;5.886;2023-02-01T00:47:42;101811.88;;;18.19;37.69
62710;BME280;48770;51.624;5.886;2023-02-01T00:50:08;101824.09;;;18.18;37.43
62710;BME280;48770;51.624;5.886;2023-02-01T00:52:33;101806.66;;;18.18;37.42
62710;BME280;48770;51.624;5.886;2023-02-01T00:54:59;101813.34;;;18.17;37.33
62710;BME280;48770;51.624;5.886;2023-02-01T00:57:24;101808.09;;;18.15;37.54
62710;BME280;48770;51.624;5.886;2023-02-01T00:59:49;101813.66;;;18.15;37.28
62710;BME280;48770;51.624;5.886;2023-02-01T01:02:14;101813.66;;;18.15;37.66
62710;BME280;48770;51.624;5.886;2023-02-01T01:04:40;101818.38;;;18.15;37.67
62710;BME280;48770;51.624;5.886;2023-02-01T01:07:06;101810.88;;;18.15;37.67
62710;BME280;48770;51.624;5.886;2023-02-01T01:09:31;101807.28;;;18.15;37.61
62710;BME280;48770;51.624;5.886;2023-02-01T01:11:56;101811.19;;;18.14;37.71
62710;BME280;48770;51.624;5.886;2023-02-01T01:14:22;101804.84;;;18.13;37.41
62710;BME280;48770;51.624;5.886;2023-02-01T01:16:47;101794.91;;;18.12;37.51
62710;BME280;48770;51.624;5.886;2023-02-01T01:19:12;101804.34;;;18.11;37.49
62710;BME280;48770;51.624;5.886;2023-02-01T01:21:38;101825.34;;;18.12;37.52
62710;BME280;48770;51.624;5.886;2023-02-01T01:24:03;101815.41;;;18.11;37.42
62710;BME280;48770;51.624;5.886;2023-02-01T01:26:29;101804.34;;;18.11;37.43
62710;BME280;48770;51.624;5.886;2023-02-01T01:28:56;101804.34;;;18.11;37.46
62710;BME280;48770;51.624;5.886;2023-02-01T01:31:21;101799.94;;;18.10;37.42
62710;BME280;48770;51.624;5.886;2023-02-01T01:33:49;101797.97;;;18.11;37.49
62710;BME280;48770;51.624;5.886;2023-02-01T01:36:14;101808.22;;;18.10;37.40
62710;BME280;48770;51.624;5.886;2023-02-01T01:38:40;101803.00;;;18.09;37.58
62710;BME280;48770;51.624;5.886;2023-02-01T01:41:07;101800.25;;;18.09;37.59
62710;BME280;48770;51.624;5.886;2023-02-01T01:46:28;101803.63;;;18.06;37.38
62710;BME280;48770;51.624;5.886;2023-02-01T01:49:02;101804.44;;;18.06;37.28
62710;BME280;48770;51.624;5.886;2023-02-01T01:51:31;101807.22;;;18.06;37.34
62710;BME280;48770;51.624;5.886;2023-02-01T01:56:31;101809.16;;;18.06;37.31
62710;BME280;48770;51.624;5.886;2023-02-01T01:58:57;101813.88;;;18.05;37.37
62710;BME280;48770;51.624;5.886;2023-02-01T02:01:23;101804.75;;;18.05;37.51
62710;BME280;48770;51.624;5.886;2023-02-01T02:03:49;101809.47;;;18.04;37.42
62710;BME280;48770;51.624;5.886;2023-02-01T02:08:53;101811.72;;;18.02;37.33
62710;BME280;48770;51.624;5.886;2023-02-01T02:11:18;101809.28;;;18.01;37.34
62710;BME280;48770;51.624;5.886;2023-02-01T02:13:46;101806.19;;;18.02;37.39
62710;BME280;48770;51.624;5.886;2023-02-01T02:16:21;101813.69;;;18.02;37.36
62710;BME280;48770;51.624;5.886;2023-02-01T02:19:03;101805.69;;;18.00;37.28
62710;BME280;48770;51.624;5.886;2023-02-01T02:21:56;101794.72;;;17.95;37.25
62710;BME280;48770;51.624;5.886;2023-02-01T02:27:17;101779.78;;;17.96;37.50
62710;BME280;48770;51.624;5.886;2023-02-01T02:32:40;101774.25;;;17.96;37.16
62710;BME280;48770;51.624;5.886;2023-02-01T02:35:24;101769.00;;;17.95;37.25
62710;BME280;48770;51.624;5.886;2023-02-01T02:37:59;101770.94;;;17.94;37.46
62710;BME280;48770;51.624;5.886;2023-02-01T02:40:39;101780.06;;;17.95;37.17
62710;BME280;48770;51.624;5.886;2023-02-01T02:43:22;101773.19;;;17.92;37.32
62710;BME280;48770;51.624;5.886;2023-02-01T02:46:22;101767.16;;;17.90;37.39
62710;BME280;48770;51.624;5.886;2023-02-01T02:49:19;101764.38;;;17.90;37.43
62710;BME280;48770;51.624;5.886;2023-02-01T02:51:52;101768.78;;;17.91;37.29
62710;BME280;48770;51.624;5.886;2023-02-01T02:54:40;101771.88;;;17.90;37.28
62710;BME280;48770;51.624;5.886;2023-02-01T03:00:09;101761.13;;;17.88;37.54
62710;BME280;48770;51.624;5.886;2023-02-01T03:02:54;101761.13;;;17.88;37.31
62710;BME280;48770;51.624;5.886;2023-02-01T03:05:43;101753.94;;;17.87;37.33
62710;BME280;48770;51.624;5.886;2023-02-01T03:08:17;101752.81;;;17.88;37.35
62710;BME280;48770;51.624;5.886;2023-02-01T03:13:56;101742.06;;;17.86;37.35
62710;BME280;48770;51.624;5.886;2023-02-01T03:16:37;101745.13;;;17.85;37.29
62710;BME280;48770;51.624;5.886;2023-02-01T03:19:27;101742.69;;;17.83;37.19
62710;BME280;48770;51.624;5.886;2023-02-01T03:22:08;101741.03;;;17.82;37.12
62710;BME280;48770;51.624;5.886;2023-02-01T03:27:23;101744.63;;;17.83;37.33
62710;BME280;48770;51.624;5.886;2023-02-01T03:30:04;101737.16;;;17.83;37.22
62710;BME280;48770;51.624;5.886;2023-02-01T03:32:32;101724.97;;;17.84;37.29
62710;BME280;48770;51.624;5.886;2023-02-01T03:35:25;101730.81;;;17.83;37.09
62710;BME280;48770;51.624;5.886;2023-02-01T03:37:53;101731.63;;;17.56;37.63
62710;BME280;48770;51.624;5.886;2023-02-01T03:40:22;101733.78;;;17.73;37.61
62710;BME280;48770;51.624;5.886;2023-02-01T03:42:52;101730.91;;;17.78;37.17
62710;BME280;48770;51.624;5.886;2023-02-01T03:45:31;101717.59;;;17.80;37.41
62710;BME280;48770;51.624;5.886;2023-02-01T03:48:00;101716.78;;;17.79;37.41
62710;BME280;48770;51.624;5.886;2023-02-01T03:50:27;101715.66;;;17.80;37.05
62710;BME280;48770;51.624;5.886;2023-02-01T03:53:10;101717.59;;;17.80;37.33
62710;BME280;48770;51.624;5.886;2023-02-01T03:55:40;101717.59;;;17.80;37.06
62710;BME280;48770;51.624;5.886;2023-02-01T03:58:13;101706.53;;;17.80;37.18
62710;BME280;48770;51.624;5.886;2023-02-01T04:00:39;101713.69;;;17.81;37.36
62710;BME280;48770;51.624;5.886;2023-02-01T04:03:06;101730.28;;;17.81;37.13
62710;BME280;48770;51.624;5.886;2023-02-01T04:05:32;101724.75;;;17.81;37.04
62710;BME280;48770;51.624;5.886;2023-02-01T04:07:57;101731.41;;;17.80;36.98
62710;BME280;48770;51.624;5.886;2023-02-01T04:10:23;101735.81;;;17.81;37.32
62710;BME280;48770;51.624;5.886;2023-02-01T04:12:48;101729.47;;;17.80;37.36
62710;BME280;48770;51.624;5.886;2023-02-01T04:15:14;101733.38;;;17.79;37.18
62710;BME280;48770;51.624;5.886;2023-02-01T04:17:39;101729.28;;;17.77;37.20
62710;BME280;48770;51.624;5.886;2023-02-01T04:20:05;101726.19;;;17.78;37.08
62710;BME280;48770;51.624;5.886;2023-02-01T04:22:31;101732.56;;;17.79;37.15
62710;BME280;48770;51.624;5.886;2023-02-01T04:24:56;101741.97;;;17.78;37.24
62710;BME280;48770;51.624;5.886;2023-02-01T04:27:21;101738.41;;;17.77;37.15
62710;BME280;48770;51.624;5.886;2023-02-01T04:29:47;101738.41;;;17.77;37.25
62710;BME280;48770;51.624;5.886;2023-02-01T04:32:15;101738.41;;;17.77;36.92
62710;BME280;48770;51.624;5.886;2023-02-01T04:34:41;101734.50;;;17.78;37.29
62710;BME280;48770;51.624;5.886;2023-02-01T04:37:06;101728.47;;;17.76;37.40
62710;BME280;48770;51.624;5.886;2023-02-01T04:39:32;101736.75;;;17.76;36.85
62710;BME280;48770;51.624;5.886;2023-02-01T04:41:57;101734.81;;;17.77;37.11
62710;BME280;48770;51.624;5.886;2023-02-01T04:44:23;101738.72;;;17.76;37.35
62710;BME280;48770;51.624;5.886;2023-02-01T04:46:48;101737.06;;;17.75;37.22
62710;BME280;48770;51.624;5.886;2023-02-01T04:49:14;101745.38;;;17.75;37.01
62710;BME280;48770;51.624;5.886;2023-02-01T04:51:40;101744.25;;;17.76;37.25
62710;BME280;48770;51.624;5.886;2023-02-01T04:54:06;101735.13;;;17.75;36.96
62710;BME280;48770;51.624;5.886;2023-02-01T04:56:31;101734.31;;;17.75;37.25
62710;BME280;48770;51.624;5.886;2023-02-01T04:58:57;101737.88;;;17.75;36.86
62710;BME280;48770;51.624;5.886;2023-02-01T05:01:22;101745.38;;;17.75;37.14
62710;BME280;48770;51.624;5.886;2023-02-01T05:03:49;101739.84;;;17.75;37.14
62710;BME280;48770;51.624;5.886;2023-02-01T05:06:15;101750.91;;;17.75;37.12
62710;BME280;48770;51.624;5.886;2023-02-01T05:08:40;101743.72;;;17.74;36.92
62710;BME280;48770;51.624;5.886;2023-02-01T05:11:05;101743.72;;;17.74;37.13
62710;BME280;48770;51.624;5.886;2023-02-01T05:13:31;101732.66;;;17.74;37.22
62710;BME280;48770;51.624;5.886;2023-02-01T05:16:15;101733.28;;;17.71;36.92
62710;BME280;48770;51.624;5.886;2023-02-01T05:18:41;101733.28;;;17.71;36.91
62710;BME280;48770;51.624;5.886;2023-02-01T05:21:07;101724.69;;;17.72;36.88
62710;BME280;48770;51.624;5.886;2023-02-01T05:23:32;101731.03;;;17.73;37.07
62710;BME280;48770;51.624;5.886;2023-02-01T05:26:18;101734.94;;;17.72;36.88
62710;BME280;48770;51.624;5.886;2023-02-01T05:28:43;101730.22;;;17.72;36.74
62710;BME280;48770;51.624;5.886;2023-02-01T05:31:11;101729.41;;;17.72;36.76
62710;BME280;48770;51.624;5.886;2023-02-01T05:33:36;101734.94;;;17.72;37.09
62710;BME280;48770;51.624;5.886;2023-02-01T05:36:02;101732.97;;;17.72;37.03
62710;BME280;48770;51.624;5.886;2023-02-01T05:38:27;101731.84;;;17.73;36.92
62710;BME280;48770;51.624;5.886;2023-02-01T05:40:54;101732.66;;;17.74;36.56
62710;BME280;48770;51.624;5.886;2023-02-01T05:43:20;101732.66;;;17.74;36.89
62710;BME280;48770;51.624;5.886;2023-02-01T05:45:45;101730.22;;;17.72;36.54
62710;BME280;48770;51.624;5.886;2023-02-01T05:48:10;101729.09;;;17.73;36.66
62710;BME280;48770;51.624;5.886;2023-02-01T05:50:36;101735.44;;;17.74;36.66
62710;BME280;48770;51.624;5.886;2023-02-01T05:53:01;101730.22;;;17.72;36.99
62710;BME280;48770;51.624;5.886;2023-02-01T05:55:26;101725.50;;;17.73;36.79
62710;BME280;48770;51.624;5.886;2023-02-01T05:57:51;101718.03;;;17.73;36.68
62710;BME280;48770;51.624;5.886;2023-02-01T06:00:17;101732.66;;;17.74;36.85
62710;BME280;48770;51.624;5.886;2023-02-01T06:02:43;101738.19;;;17.74;36.69
62710;BME280;48770;51.624;5.886;2023-02-01T06:05:08;101742.91;;;17.73;36.89
62710;BME280;48770;51.624;5.886;2023-02-01T06:07:34;101748.44;;;17.73;36.73
62710;BME280;48770;51.624;5.886;2023-02-01T06:09:59;101749.25;;;17.74;36.73
62710;BME280;48770;51.624;5.886;2023-02-01T06:12:24;101749.25;;;17.74;36.59
62710;BME280;48770;51.624;5.886;2023-02-01T06:14:53;101749.25;;;17.74;36.70
62710;BME280;48770;51.624;5.886;2023-02-01T06:17:18;101753.66;;;17.75;36.59
62710;BME280;48770;51.624;5.886;2023-02-01T06:19:44;101749.25;;;17.74;36.75
62710;BME280;48770;51.624;5.886;2023-02-01T06:22:10;101740.97;;;17.74;36.89
62710;BME280;48770;51.624;5.886;2023-02-01T06:24:35;101734.31;;;17.75;36.74
62710;BME280;48770;51.624;5.886;2023-02-01T06:27:01;101728.25;;;17.73;36.80
62710;BME280;48770;51.624;5.886;2023-02-01T06:29:26;101729.91;;;17.74;36.56
62710;BME280;48770;51.624;5.886;2023-02-01T06:31:51;101735.75;;;17.72;36.54
62710;BME280;48770;51.624;5.886;2023-02-01T06:34:17;101740.47;;;17.72;36.55
62710;BME280;48770;51.624;5.886;2023-02-01T06:36:43;101748.44;;;17.73;36.80
62710;BME280;48770;51.624;5.886;2023-02-01T06:39:08;101741.28;;;17.72;36.66
62710;BME280;48770;51.624;5.886;2023-02-01T06:41:33;101746.00;;;17.72;36.52
62710;BME280;48770;51.624;5.886;2023-02-01T06:44:00;101755.09;;;17.72;36.59
62710;BME280;48770;51.624;5.886;2023-02-01T06:46:25;101763.72;;;17.71;36.83
62710;BME280;48770;51.624;5.886;2023-02-01T06:48:50;101766.47;;;17.71;36.66
62710;BME280;48770;51.624;5.886;2023-02-01T06:51:26;101765.66;;;17.70;36.69
62710;BME280;48770;51.624;5.886;2023-02-01T06:53:54;101762.59;;;17.72;36.62
62710;BME280;48770;51.624;5.886;2023-02-01T06:56:19;101765.66;;;17.70;36.81
62710;BME280;48770;51.624;5.886;2023-02-01T06:58:45;101766.47;;;17.71;36.83
62710;BME280;48770;51.624;5.886;2023-02-01T07:01:11;101760.63;;;17.72;36.72
62710;BME280;48770;51.624;5.886;2023-02-01T07:03:37;101759.81;;;17.72;36.80
62710;BME280;48770;51.624;5.886;2023-02-01T07:06:03;101765.03;;;17.73;37.01
62710;BME280;48770;51.624;5.886;2023-02-01T07:08:31;101753.16;;;17.73;36.89
62710;BME280;48770;51.624;5.886;2023-02-01T07:10:56;101750.41;;;17.73;36.70
62710;BME280;48770;51.624;5.886;2023-02-01T07:13:22;101749.88;;;17.71;36.51
62710;BME280;48770;51.624;5.886;2023-02-01T07:15:47;101754.59;;;17.70;36.74
62710;BME280;48770;51.624;5.886;2023-02-01T07:18:14;101753.16;;;17.73;36.58
62710;BME280;48770;51.624;5.886;2023-02-01T07:20:40;101749.88;;;17.71;36.61
62710;BME280;48770;51.624;5.886;2023-02-01T07:23:06;101762.59;;;17.72;36.61
62710;BME280;48770;51.624;5.886;2023-02-01T07:25:31;101769.25;;;17.71;36.84
62710;BME280;48770;51.624;5.886;2023-02-01T07:27:57;101763.41;;;17.72;36.74
62710;BME280;48770;51.624;5.886;2023-02-01T07:30:23;101760.13;;;17.70;36.82
62710;BME280;48770;51.624;5.886;2023-02-01T07:32:48;101760.94;;;17.71;36.55
62710;BME280;48770;51.624;5.886;2023-02-01T07:35:14;101766.47;;;17.71;36.80
62710;BME280;48770;51.624;5.886;2023-02-01T07:37:39;101764.84;;;17.70;36.88
62710;BME280;48770;51.624;5.886;2023-02-01T07:40:05;101763.72;;;17.71;36.98
62710;BME280;48770;51.624;5.886;2023-02-01T07:42:31;101765.34;;;17.72;36.75
62710;BME280;48770;51.624;5.886;2023-02-01T07:44:56;101771.19;;;17.70;36.57
62710;BME280;48770;51.624;5.886;2023-02-01T07:47:22;101759.31;;;17.70;36.80
62710;BME280;48770;51.624;5.886;2023-02-01T07:49:47;101770.38;;;17.70;36.74
62710;BME280;48770;51.624;5.886;2023-02-01T07:52:12;101765.94;;;17.69;36.69
62710;BME280;48770;51.624;5.886;2023-02-01T07:54:40;101776.72;;;17.70;36.78
62710;BME280;48770;51.624;5.886;2023-02-01T07:57:06;101764.84;;;17.70;36.65
62710;BME280;48770;51.624;5.886;2023-02-01T07:59:33;101760.94;;;17.71;36.67
62710;BME280;48770;51.624;5.886;2023-02-01T08:01:58;101759.81;;;17.72;37.07
62710;BME280;48770;51.624;5.886;2023-02-01T08:04:24;101760.13;;;17.70;36.73
62710;BME280;48770;51.624;5.886;2023-02-01T08:06:49;101760.94;;;17.71;36.88
62710;BME280;48770;51.624;5.886;2023-02-01T08:09:15;101760.13;;;17.70;36.87
62710;BME280;48770;51.624;5.886;2023-02-01T08:11:40;101757.66;;;17.69;36.44
62710;BME280;48770;51.624;5.886;2023-02-01T08:14:05;101766.47;;;17.71;36.87
62710;BME280;48770;51.624;5.886;2023-02-01T08:16:32;101771.19;;;17.70;36.64
62710;BME280;48770;51.624;5.886;2023-02-01T08:18:59;101779.19;;;17.72;36.67
62710;BME280;48770;51.624;5.886;2023-02-01T08:21:26;101785.53;;;17.72;36.65
62710;BME280;48770;51.624;5.886;2023-02-01T08:23:53;101790.25;;;17.72;37.02
62710;BME280;48770;51.624;5.886;2023-02-01T08:26:24;101786.34;;;17.73;36.88
62710;BME280;48770;51.624;5.886;2023-02-01T08:28:55;101799.38;;;17.72;36.79
62710;BME280;48770;51.624;5.886;2023-02-01T08:31:22;101787.16;;;17.73;36.88
62710;BME280;48770;51.624;5.886;2023-02-01T08:33:53;101794.66;;;17.73;36.97
62710;BME280;48770;51.624;5.886;2023-02-01T08:36:19;101791.88;;;17.73;37.02
62710;BME280;48770;51.624;5.886;2023-02-01T08:38:45;101799.38;;;17.72;36.84
62710;BME280;48770;51.624;5.886;2023-02-01T08:41:14;101789.13;;;17.73;36.96
62710;BME280;48770;51.624;5.886;2023-02-01T08:43:40;101792.69;;;17.73;36.97
62710;BME280;48770;51.624;5.886;2023-02-01T08:46:08;101788.00;;;17.74;36.97
62710;BME280;48770;51.624;5.886;2023-02-01T08:48:33;101785.53;;;17.72;36.68
62710;BME280;48770;51.624;5.886;2023-02-01T08:51:08;101774.16;;;17.74;36.86
62710;BME280;48770;51.624;5.886;2023-02-01T08:53:34;101780.81;;;17.73;37.04
62710;BME280;48770;51.624;5.886;2023-02-01T08:56:01;101779.19;;;17.72;36.74
62710;BME280;48770;51.624;5.886;2023-02-01T08:58:26;101777.53;;;17.71;36.71
62710;BME280;48770;51.624;5.886;2023-02-01T09:00:51;101774.47;;;17.72;36.61
62710;BME280;48770;51.624;5.886;2023-02-01T09:03:17;101766.16;;;17.72;36.79
62710;BME280;48770;51.624;5.886;2023-02-01T09:05:42;101765.34;;;17.72;36.56
62710;BME280;48770;51.624;5.886;2023-02-01T09:08:08;101767.00;;;17.73;36.66
62710;BME280;48770;51.624;5.886;2023-02-01T09:10:34;101763.09;;;17.74;36.75
62710;BME280;48770;51.624;5.886;2023-02-01T09:13:01;101767.81;;;17.73;36.76
62710;BME280;48770;51.624;5.886;2023-02-01T09:15:26;101760.31;;;17.74;36.85
62710;BME280;48770;51.624;5.886;2023-02-01T09:17:52;101765.88;;;17.74;37.06
62710;BME280;48770;51.624;5.886;2023-02-01T09:20:17;101756.75;;;17.73;36.94
62710;BME280;48770;51.624;5.886;2023-02-01T09:22:45;101761.97;;;17.75;36.61
62710;BME280;48770;51.624;5.886;2023-02-01T09:25:10;101757.25;;;17.75;36.72
62710;BME280;48770;51.624;5.886;2023-02-01T09:27:35;101764.41;;;17.76;36.51
62710;BME280;48770;51.624;5.886;2023-02-01T09:30:02;101756.94;;;17.77;36.94
62710;BME280;48770;51.624;5.886;2023-02-01T09:32:28;101751.91;;;17.79;36.87
62710;BME280;48770;51.624;5.886;2023-02-01T09:34:53;101754.69;;;17.79;36.64
62710;BME280;48770;51.624;5.886;2023-02-01T09:37:19;101755.19;;;17.81;36.77
62710;BME280;48770;51.624;5.886;2023-02-01T09:39:45;101757.34;;;17.84;36.62
62710;BME280;48770;51.624;5.886;2023-02-01T09:43:06;101763.38;;;17.86;36.42
62710;BME280;48770;51.624;5.886;2023-02-01T09:45:32;101760.09;;;17.84;36.57
62710;BME280;48770;51.624;5.886;2023-02-01T09:48:10;101755.59;;;17.88;36.41
62710;BME280;48770;51.624;5.886;2023-02-01T09:50:41;101756.09;;;17.90;36.55
62710;BME280;48770;51.624;5.886;2023-02-01T09:53:24;101739.19;;;17.92;36.29
62710;BME280;48770;51.624;5.886;2023-02-01T09:55:56;101747.16;;;17.93;36.54
62710;BME280;48770;51.624;5.886;2023-02-01T10:01:04;101749.84;;;17.98;36.41
62710;BME280;48770;51.624;5.886;2023-02-01T10:03:32;101755.88;;;18.00;36.30
62710;BME280;48770;51.624;5.886;2023-02-01T10:09:07;101750.84;;;18.02;36.40
62710;BME280;48770;51.624;5.886;2023-02-01T10:14:31;101756.81;;;17.82;36.84
62710;BME280;48770;51.624;5.886;2023-02-01T10:17:26;101763.69;;;17.98;36.38
62710;BME280;48770;51.624;5.886;2023-02-01T10:20:20;101757.22;;;18.03;36.24
62710;BME280;48770;51.624;5.886;2023-02-01T10:25:23;101757.16;;;18.16;36.22
62710;BME280;48770;51.624;5.886;2023-02-01T10:27:51;101765.16;;;18.18;36.24
62710;BME280;48770;51.624;5.886;2023-02-01T10:30:22;101759.53;;;18.23;35.98
62710;BME280;48770;51.624;5.886;2023-02-01T10:33:18;101769.25;;;18.21;35.92
62710;BME280;48770;51.624;5.886;2023-02-01T10:35:53;101770.28;;;18.25;36.02
62710;BME280;48770;51.624;5.886;2023-02-01T10:38:30;101761.34;;;18.28;36.16
62710;BME280;48770;51.624;5.886;2023-02-01T10:41:07;101759.09;;;18.30;36.05
62710;BME280;48770;51.624;5.886;2023-02-01T10:43:33;101761.22;;;18.33;36.00
62710;BME280;48770;51.624;5.886;2023-02-01T10:45:59;101769.53;;;18.33;35.88
62710;BME280;48770;51.624;5.886;2023-02-01T10:48:24;101755.06;;;18.36;36.06
62710;BME280;48770;51.624;5.886;2023-02-01T10:50:59;101756.69;;;18.37;35.89
62710;BME280;48770;51.624;5.886;2023-02-01T10:53:31;101751.66;;;18.39;35.90
62710;BME280;48770;51.624;5.886;2023-02-01T10:56:09;101739.44;;;18.40;35.88
62710;BME280;48770;51.624;5.886;2023-02-01T10:58:36;101741.09;;;18.41;35.93
62710;BME280;48770;51.624;5.886;2023-02-01T11:01:08;101748.25;;;18.42;36.21
62710;BME280;48770;51.624;5.886;2023-02-01T11:06:33;101726.59;;;18.44;36.09
62710;BME280;48770;51.624;5.886;2023-02-01T11:09:09;101724.66;;;18.44;36.05
62710;BME280;48770;51.624;5.886;2023-02-01T11:11:53;101708.34;;;18.43;35.87
62710;BME280;48770;51.624;5.886;2023-02-01T11:14:26;101711.63;;;18.45;35.85
62710;BME280;48770;51.624;5.886;2023-02-01T11:16:55;101721.56;;;18.46;35.86
62710;BME280;48770;51.624;5.886;2023-02-01T11:19:21;101713.47;;;18.49;35.89
62710;BME280;48770;51.624;5.886;2023-02-01T11:21:57;101707.63;;;18.51;36.06
62710;BME280;48770;51.624;5.886;2023-02-01T11:24:27;101732.53;;;18.51;36.05
62710;BME280;48770;51.624;5.886;2023-02-01T11:26:58;101716.44;;;18.53;35.81
62710;BME280;48770;51.624;5.886;2023-02-01T11:29:25;101708.94;;;18.54;35.73
62710;BME280;48770;51.624;5.886;2023-02-01T11:31:56;101714.16;;;18.55;35.98
62710;BME280;48770;51.624;5.886;2023-02-01T11:34:26;101708.31;;;18.57;35.80
62710;BME280;48770;51.624;5.886;2023-02-01T11:36:58;101702.75;;;18.57;35.96
62710;BME280;48770;51.624;5.886;2023-02-01T11:39:28;101709.13;;;18.57;35.65
62710;BME280;48770;51.624;5.886;2023-02-01T11:44:26;101693.00;;;18.59;35.78
62710;BME280;48770;51.624;5.886;2023-02-01T11:46:54;101696.09;;;18.58;35.76
62710;BME280;48770;51.624;5.886;2023-02-01T11:49:25;101687.16;;;18.61;35.84
62710;BME280;48770;51.624;5.886;2023-02-01T11:52:05;101697.09;;;18.62;35.90
62710;BME280;48770;51.624;5.886;2023-02-01T12:03:03;101681.94;;;18.59;36.00
62710;BME280;48770;51.624;5.886;2023-02-01T12:05:57;101689.91;;;18.61;35.90
62710;BME280;48770;51.624;5.886;2023-02-01T12:11:32;101668.28;;;18.63;35.90
62710;BME280;48770;51.624;5.886;2023-02-01T12:14:29;101679.66;;;18.61;35.98
62710;BME280;48770;51.624;5.886;2023-02-01T12:22:18;101687.53;;;18.68;35.94
62710;BME280;48770;51.624;5.886;2023-02-01T12:25:00;101679.22;;;18.68;35.69
62710;BME280;48770;51.624;5.886;2023-02-01T12:30:17;101678.91;;;18.69;35.83
62710;BME280;48770;51.624;5.886;2023-02-01T12:41:19;101674.69;;;18.72;36.01
62710;BME280;48770;51.624;5.886;2023-02-01T12:43:55;101674.34;;;18.73;35.68
62710;BME280;48770;51.624;5.886;2023-02-01T12:46:32;101670.50;;;18.74;35.70
62710;BME280;48770;51.624;5.886;2023-02-01T12:49:03;101674.88;;;18.75;35.92
62710;BME280;48770;51.624;5.886;2023-02-01T12:51:39;101670.16;;;18.76;35.83
62710;BME280;48770;51.624;5.886;2023-02-01T12:57:12;101669.34;;;18.75;35.63
62710;BME280;48770;51.624;5.886;2023-02-01T13:02:22;101660.72;;;18.77;35.78
62710;BME280;48770;51.624;5.886;2023-02-01T13:05:13;101662.19;;;18.74;35.91
62710;BME280;48770;51.624;5.886;2023-02-01T13:07:53;101651.59;;;18.76;36.05
62710;BME280;48770;51.624;5.886;2023-02-01T13:13:16;101648.31;;;18.74;35.80
62710;BME280;48770;51.624;5.886;2023-02-01T13:15:51;101663.16;;;18.78;35.82
62710;BME280;48770;51.624;5.886;2023-02-01T13:18:22;101653.72;;;18.79;35.80
62710;BME280;48770;51.624;5.886;2023-02-01T13:21:12;101653.72;;;18.79;35.72
62710;BME280;48770;51.624;5.886;2023-02-01T13:23:41;101657.00;;;18.82;35.76
62710;BME280;48770;51.624;5.886;2023-02-01T13:26:10;101649.16;;;18.84;35.89
62710;BME280;48770;51.624;5.886;2023-02-01T13:28:55;101642.31;;;18.81;36.03
62710;BME280;48770;51.624;5.886;2023-02-01T13:37:03;101641.00;;;18.78;35.91
62710;BME280;48770;51.624;5.886;2023-02-01T13:42:56;101635.09;;;18.71;35.81
62710;BME280;48770;51.624;5.886;2023-02-01T13:45:30;101654.97;;;18.73;36.22
62710;BME280;48770;51.624;5.886;2023-02-01T13:48:00;101649.97;;;18.75;36.31
62710;BME280;48770;51.624;5.886;2023-02-01T13:50:32;101644.91;;;18.77;36.09
62710;BME280;48770;51.624;5.886;2023-02-01T13:55:40;101659.91;;;18.76;36.01
62710;BME280;48770;51.624;5.886;2023-02-01T13:58:36;101656.63;;;18.74;36.06
62710;BME280;48770;51.624;5.886;2023-02-01T14:03:55;101657.25;;;18.71;36.12
62710;BME280;48770;51.624;5.886;2023-02-01T14:09:45;101674.50;;;18.68;36.31
62710;BME280;48770;51.624;5.886;2023-02-01T14:15:22;101667.75;;;18.61;36.13
62710;BME280;48770;51.624;5.886;2023-02-01T14:17:48;101676.88;;;18.61;36.28
62710;BME280;48770;51.624;5.886;2023-02-01T14:20:39;101674.75;;;18.58;36.09
62710;BME280;48770;51.624;5.886;2023-02-01T14:23:12;101678.66;;;18.57;36.15
62710;BME280;48770;51.624;5.886;2023-02-01T14:25:39;101684.19;;;18.57;36.29
62710;BME280;48770;51.624;5.886;2023-02-01T14:28:11;101692.81;;;18.56;36.41
62710;BME280;48770;51.624;5.886;2023-02-01T14:30:37;101686.28;;;18.52;36.69
62710;BME280;48770;51.624;5.886;2023-02-01T14:33:17;101691.81;;;18.52;36.48
62710;BME280;48770;51.624;5.886;2023-02-01T14:36:07;101688.03;;;18.47;36.47
62710;BME280;48770;51.624;5.886;2023-02-01T14:38:36;101687.53;;;18.45;36.55
62710;BME280;48770;51.624;5.886;2023-02-01T14:41:32;101700.69;;;18.40;36.61